Time;durP1;ratioP1;P1;durP2;ratioP2;P2;SDS_P1;SDS_P2;PMS_P1;PMS_P2;Temp;Humidity;BMP_temperature;BMP_pressure;BME280_temperature;BME280_humidity;BME280_pressure;Samples;Min_cycle;Max_cycle;Signal;HPM_P1;HPM_P2
2022/06/09 00:01:34;;;;;;;1.52;1.20;;;15.20;99.90;;;;;;4922430;29;20066;-61
2022/06/09 00:04:17;;;;;;;1.92;1.10;;;15.10;99.90;;;;;;4921709;29;20131;-61
2022/06/09 00:06:52;;;;;;;2.95;1.40;;;15.10;99.90;;;;;;4923537;29;20032;-60
2022/06/09 00:09:21;;;;;;;3.38;1.20;;;15.10;99.90;;;;;;4922735;29;20040;-61
2022/06/09 00:11:49;;;;;;;2.15;1.08;;;15.10;99.90;;;;;;4921032;29;20051;-61
2022/06/09 00:14:16;;;;;;;3.53;1.27;;;15.10;99.90;;;;;;4911688;29;20141;-60
2022/06/09 00:16:43;;;;;;;2.40;1.27;;;15.10;99.90;;;;;;4924284;29;20040;-60
2022/06/09 00:19:10;;;;;;;0.88;0.82;;;15.10;99.90;;;;;;4923283;29;20020;-61
2022/06/09 00:21:36;;;;;;;1.52;1.08;;;15.10;99.90;;;;;;4920119;29;20031;-60
2022/06/09 00:24:03;;;;;;;1.52;1.10;;;15.10;99.90;;;;;;4919960;28;20074;-61
2022/06/09 00:26:29;;;;;;;2.85;1.50;;;15.10;99.90;;;;;;4921512;29;20044;-60
2022/06/09 00:28:56;;;;;;;1.73;1.10;;;15.10;99.90;;;;;;4919124;29;20571;-61
2022/06/09 00:31:22;;;;;;;2.97;1.20;;;15.10;99.90;;;;;;4921194;29;20068;-61
2022/06/09 00:33:48;;;;;;;2.92;1.40;;;15.10;99.90;;;;;;4923192;29;20032;-60
2022/06/09 00:36:14;;;;;;;2.92;1.10;;;15.10;99.90;;;;;;4912792;29;20044;-61
2022/06/09 00:38:40;;;;;;;1.67;1.00;;;15.10;99.90;;;;;;4922021;29;20033;-61
2022/06/09 00:41:06;;;;;;;1.98;1.33;;;15.10;99.90;;;;;;4920928;29;20511;-60
2022/06/09 00:43:33;;;;;;;2.33;1.27;;;15.10;99.90;;;;;;4910222;29;20043;-61
2022/06/09 00:46:05;;;;;;;2.58;1.48;;;15.10;99.90;;;;;;4918804;29;20120;-61
2022/06/09 00:48:48;;;;;;;3.50;1.50;;;15.10;99.90;;;;;;4920059;29;20036;-61
2022/06/09 00:51:19;;;;;;;1.88;1.45;;;15.10;99.90;;;;;;4922928;29;20495;-61
2022/06/09 00:53:46;;;;;;;2.67;1.60;;;15.10;99.90;;;;;;4922415;29;20046;-60
2022/06/09 00:56:13;;;;;;;2.58;1.48;;;15.10;99.90;;;;;;4921772;29;20130;-61
2022/06/09 00:58:42;;;;;;;5.18;1.60;;;15.10;99.90;;;;;;4920403;29;20046;-60
2022/06/09 01:01:13;;;;;;;5.13;1.70;;;15.10;99.90;;;;;;4920712;29;20020;-61
2022/06/09 01:03:51;;;;;;;2.38;2.13;;;15.10;99.90;;;;;;4918009;29;20027;-60
2022/06/09 01:06:24;;;;;;;1.88;1.60;;;15.10;99.90;;;;;;4921191;29;20055;-60
2022/06/09 01:09:06;;;;;;;4.70;2.00;;;15.10;99.90;;;;;;4920830;29;20040;-61
2022/06/09 01:11:32;;;;;;;3.42;1.60;;;15.00;99.90;;;;;;4917865;29;20035;-61
2022/06/09 01:13:58;;;;;;;2.30;1.55;;;15.00;99.90;;;;;;4922610;29;20452;-60
2022/06/09 01:16:25;;;;;;;3.40;1.73;;;15.00;99.90;;;;;;4919371;29;20392;-61
2022/06/09 01:19:22;;;;;;;3.28;1.80;;;15.00;99.90;;;;;;4903410;29;20024;-64
2022/06/09 01:22:07;;;;;;;2.65;2.17;;;15.00;99.90;;;;;;4920787;29;20027;-60
2022/06/09 01:24:57;;;;;;;3.47;1.85;;;15.00;99.90;;;;;;4919708;29;20048;-61
2022/06/09 01:27:56;;;;;;;2.90;1.98;;;14.90;99.90;;;;;;4921103;29;20119;-61
2022/06/09 01:30:44;;;;;;;3.83;2.15;;;14.90;99.90;;;;;;4922446;29;20040;-61
2022/06/09 01:33:23;;;;;;;3.92;1.90;;;14.90;99.90;;;;;;4921663;29;20108;-61
2022/06/09 01:36:02;;;;;;;4.75;1.92;;;14.80;99.90;;;;;;4919001;29;20036;-60
2022/06/09 01:38:29;;;;;;;2.25;1.60;;;14.90;99.90;;;;;;4919668;29;20032;-60
2022/06/09 01:40:54;;;;;;;4.13;2.22;;;14.90;99.90;;;;;;4919724;29;20035;-61
2022/06/09 01:43:20;;;;;;;2.88;1.40;;;14.90;99.90;;;;;;4921442;29;20032;-60
2022/06/09 01:45:48;;;;;;;2.63;1.60;;;14.90;99.90;;;;;;4921128;29;20083;-61
2022/06/09 01:48:17;;;;;;;2.05;1.55;;;15.00;99.90;;;;;;4911042;29;20491;-60
2022/06/09 01:51:16;;;;;;;2.28;1.50;;;15.00;99.90;;;;;;4920538;29;20052;-61
2022/06/09 01:53:53;;;;;;;2.80;1.30;;;15.00;99.90;;;;;;4918628;29;20055;-60
2022/06/09 01:56:29;;;;;;;2.15;1.83;;;15.10;99.90;;;;;;4919955;29;20075;-60
2022/06/09 01:58:57;;;;;;;3.42;1.40;;;15.10;99.90;;;;;;4920750;29;20027;-61
2022/06/09 02:01:27;;;;;;;2.33;1.30;;;15.10;99.90;;;;;;4921390;29;20111;-61
2022/06/09 02:03:57;;;;;;;2.00;1.33;;;15.10;99.90;;;;;;4922271;29;20023;-61
2022/06/09 02:06:24;;;;;;;4.13;1.83;;;15.10;99.90;;;;;;4919390;29;20027;-61
2022/06/09 02:08:50;;;;;;;2.40;1.50;;;15.10;99.90;;;;;;4921621;29;20033;-60
2022/06/09 02:11:16;;;;;;;2.30;1.50;;;15.10;99.90;;;;;;4919902;29;20067;-60
2022/06/09 02:13:47;;;;;;;3.40;1.60;;;15.10;99.90;;;;;;4916914;29;20067;-60
2022/06/09 02:16:16;;;;;;;2.60;1.50;;;15.10;99.90;;;;;;4916960;29;20108;-61
2022/06/09 02:18:45;;;;;;;1.88;1.45;;;15.10;99.90;;;;;;4919414;29;20043;-61
2022/06/09 02:21:24;;;;;;;2.20;1.30;;;15.10;99.90;;;;;;4918957;29;20104;-60
2022/06/09 02:23:50;;;;;;;3.28;1.50;;;15.10;99.90;;;;;;4921714;29;20032;-61
2022/06/09 02:26:16;;;;;;;1.80;1.35;;;15.10;99.90;;;;;;4923012;29;20056;-61
2022/06/09 02:28:43;;;;;;;1.85;1.50;;;15.10;99.90;;;;;;4922133;29;20071;-61
2022/06/09 02:31:08;;;;;;;3.28;1.65;;;15.10;99.90;;;;;;4917618;29;20028;-61
2022/06/09 02:33:34;;;;;;;3.35;1.50;;;15.10;99.90;;;;;;4917684;29;20508;-60
2022/06/09 02:36:00;;;;;;;4.18;1.52;;;15.00;99.90;;;;;;4924712;29;20061;-61
2022/06/09 02:38:25;;;;;;;1.60;1.38;;;15.00;99.90;;;;;;4920771;29;20487;-60
2022/06/09 02:40:54;;;;;;;1.98;1.50;;;15.00;99.90;;;;;;4907975;29;20040;-61
2022/06/09 02:43:20;;;;;;;2.78;1.40;;;15.00;99.90;;;;;;4917109;29;20080;-61
2022/06/09 02:45:46;;;;;;;2.05;1.35;;;15.00;99.90;;;;;;4917341;29;20028;-60
2022/06/09 02:48:12;;;;;;;3.47;1.23;;;15.00;99.90;;;;;;4923911;29;20047;-60
2022/06/09 02:50:39;;;;;;;1.45;0.90;;;14.90;99.90;;;;;;4920288;29;20144;-60
2022/06/09 02:53:06;;;;;;;2.13;1.08;;;14.90;99.90;;;;;;4917918;29;20091;-60
2022/06/09 02:55:32;;;;;;;1.85;0.82;;;14.90;99.90;;;;;;4921179;29;20036;-60
2022/06/09 02:57:58;;;;;;;1.25;0.82;;;14.80;99.90;;;;;;4923283;29;20030;-60
2022/06/09 03:00:23;;;;;;;1.48;1.02;;;14.80;99.90;;;;;;4925207;29;20029;-60
2022/06/09 03:02:58;;;;;;;1.02;0.85;;;14.80;99.90;;;;;;4922490;29;20384;-60
2022/06/09 03:05:24;;;;;;;2.53;1.02;;;14.70;99.90;;;;;;4924600;29;20083;-61
2022/06/09 03:07:50;;;;;;;1.42;0.95;;;14.70;99.90;;;;;;4911542;29;20484;-60
2022/06/09 03:10:16;;;;;;;2.90;1.23;;;14.60;99.90;;;;;;4923501;29;20040;-60
2022/06/09 03:12:42;;;;;;;2.22;0.80;;;14.60;99.90;;;;;;4920131;29;20052;-60
2022/06/09 03:15:10;;;;;;;1.20;1.10;;;14.60;99.90;;;;;;4920599;29;20056;-60
2022/06/09 03:17:36;;;;;;;2.42;1.35;;;14.60;99.90;;;;;;4921690;29;20036;-61
2022/06/09 03:20:07;;;;;;;1.13;0.80;;;14.60;99.90;;;;;;4927773;29;20051;-61
2022/06/09 03:22:33;;;;;;;2.40;1.02;;;14.50;99.90;;;;;;4923545;29;20036;-60
2022/06/09 03:25:00;;;;;;;1.40;1.10;;;14.50;99.90;;;;;;4920122;29;20048;-61
2022/06/09 03:27:26;;;;;;;1.48;0.88;;;14.40;99.90;;;;;;4927076;29;20107;-60
2022/06/09 03:29:52;;;;;;;2.22;0.80;;;14.40;99.90;;;;;;4924483;29;20032;-60
2022/06/09 03:32:18;;;;;;;1.23;1.05;;;14.40;99.90;;;;;;4919676;29;20055;-61
2022/06/09 03:34:43;;;;;;;2.05;1.30;;;14.50;99.90;;;;;;4922647;29;20041;-60
2022/06/09 03:37:09;;;;;;;3.35;1.40;;;14.50;99.90;;;;;;4924083;29;20028;-61
2022/06/09 03:39:36;;;;;;;2.35;1.27;;;14.50;99.90;;;;;;4903755;29;20036;-61
2022/06/09 03:42:03;;;;;;;2.95;1.20;;;14.50;99.90;;;;;;4923506;29;20043;-61
2022/06/09 03:44:29;;;;;;;1.50;1.17;;;14.50;99.90;;;;;;4925738;29;20495;-61
2022/06/09 03:46:54;;;;;;;2.67;1.10;;;14.60;99.90;;;;;;4925331;29;20042;-60
2022/06/09 03:49:20;;;;;;;1.42;1.20;;;14.60;99.90;;;;;;4923193;29;20052;-61
2022/06/09 03:51:46;;;;;;;2.20;1.40;;;14.60;99.90;;;;;;4924269;29;20043;-60
2022/06/09 03:54:13;;;;;;;1.88;1.10;;;14.70;99.90;;;;;;4923860;29;20109;-61
2022/06/09 03:56:40;;;;;;;1.83;1.30;;;14.70;99.90;;;;;;4918864;29;20127;-61
2022/06/09 03:59:06;;;;;;;2.42;1.10;;;14.80;99.90;;;;;;4920277;29;20036;-61
2022/06/09 04:01:31;;;;;;;2.65;1.10;;;14.80;99.90;;;;;;4922073;29;20043;-60
2022/06/09 04:03:57;;;;;;;1.40;1.10;;;14.80;99.90;;;;;;4919101;29;20390;-61
2022/06/09 04:06:25;;;;;;;2.67;1.02;;;14.90;99.90;;;;;;4921097;29;20028;-61
2022/06/09 04:08:52;;;;;;;3.83;1.45;;;14.90;99.90;;;;;;4921668;29;20131;-61
2022/06/09 04:11:19;;;;;;;2.42;1.20;;;14.90;99.90;;;;;;4923996;29;20040;-61
2022/06/09 04:13:45;;;;;;;1.17;1.10;;;15.00;99.90;;;;;;4918436;29;20092;-61
2022/06/09 04:16:25;;;;;;;1.85;1.20;;;15.10;99.90;;;;;;4922543;29;20051;-60
2022/06/09 04:18:52;;;;;;;2.85;1.50;;;15.10;99.90;;;;;;4919379;29;20027;-60
2022/06/09 04:21:18;;;;;;;3.05;1.27;;;15.20;99.90;;;;;;4920980;29;20383;-61
2022/06/09 04:23:44;;;;;;;1.83;1.50;;;15.20;99.90;;;;;;4922038;29;20040;-60
2022/06/09 04:26:16;;;;;;;1.73;1.20;;;15.20;99.90;;;;;;4921495;29;20032;-61
2022/06/09 04:28:43;;;;;;;1.70;1.38;;;15.20;99.90;;;;;;4921418;29;20046;-61
2022/06/09 04:31:09;;;;;;;2.10;1.48;;;15.10;99.90;;;;;;4916618;29;20025;-61
2022/06/09 04:33:35;;;;;;;1.75;1.30;;;15.10;99.90;;;;;;4921524;29;20107;-60
2022/06/09 04:36:01;;;;;;;2.72;1.40;;;15.10;99.90;;;;;;4922189;29;20392;-60
2022/06/09 04:38:27;;;;;;;2.40;1.40;;;15.10;99.90;;;;;;4920372;29;20039;-61
2022/06/09 04:40:52;;;;;;;2.03;1.30;;;15.10;99.90;;;;;;4923566;29;20035;-61
2022/06/09 04:43:18;;;;;;;2.85;1.25;;;15.10;99.90;;;;;;4923002;29;20511;-60
2022/06/09 04:45:44;;;;;;;1.83;1.20;;;15.20;99.90;;;;;;4925357;29;20032;-61
2022/06/09 04:48:10;;;;;;;1.85;1.20;;;15.20;99.90;;;;;;4921482;29;20035;-61
2022/06/09 04:50:36;;;;;;;3.90;1.50;;;15.30;99.90;;;;;;4922804;29;20048;-60
2022/06/09 04:53:03;;;;;;;2.78;1.30;;;15.40;99.90;;;;;;4924413;29;20032;-60
2022/06/09 04:55:29;;;;;;;2.85;1.10;;;15.50;99.90;;;;;;4917484;29;20055;-60
2022/06/09 04:57:55;;;;;;;1.77;1.20;;;15.60;99.90;;;;;;4921491;29;20024;-61
2022/06/09 05:00:21;;;;;;;1.77;1.02;;;15.70;99.90;;;;;;4922320;29;20442;-61
2022/06/09 05:02:47;;;;;;;4.63;1.58;;;15.80;99.90;;;;;;4926041;29;20059;-61
2022/06/09 05:05:19;;;;;;;2.00;1.25;;;15.90;99.90;;;;;;4925004;29;20048;-60
2022/06/09 05:07:45;;;;;;;2.03;1.20;;;16.00;99.90;;;;;;4921713;29;20051;-60
2022/06/09 05:10:11;;;;;;;1.52;1.10;;;16.00;99.90;;;;;;4921382;29;20047;-61
2022/06/09 05:12:36;;;;;;;1.38;1.13;;;16.00;99.90;;;;;;4910389;29;20111;-61
2022/06/09 05:15:04;;;;;;;4.13;1.23;;;16.10;99.90;;;;;;4919889;29;20043;-60
2022/06/09 05:17:29;;;;;;;3.22;1.33;;;16.10;99.90;;;;;;4921593;29;20094;-61
2022/06/09 05:19:55;;;;;;;1.45;1.10;;;16.20;99.90;;;;;;4918196;29;20043;-61
2022/06/09 05:22:21;;;;;;;2.22;1.13;;;16.40;99.90;;;;;;4924815;29;20039;-61
2022/06/09 05:24:46;;;;;;;1.50;1.10;;;16.50;99.90;;;;;;4921204;29;20060;-60
2022/06/09 05:27:14;;;;;;;2.83;1.13;;;16.70;99.90;;;;;;4925228;29;20082;-61
2022/06/09 05:29:40;;;;;;;3.38;1.17;;;16.90;99.90;;;;;;4921529;29;20028;-60
2022/06/09 05:32:06;;;;;;;4.57;1.20;;;17.00;99.90;;;;;;4920889;29;20031;-61
2022/06/09 05:34:32;;;;;;;1.70;0.80;;;17.20;99.90;;;;;;4920443;29;20096;-61
2022/06/09 05:36:58;;;;;;;1.25;1.08;;;17.40;99.90;;;;;;4918766;29;20025;-61
2022/06/09 05:44:55;;;;;;;1.00;0.90;;;17.90;99.90;;;;;;4917553;29;20712;-61
2022/06/09 05:47:23;;;;;;;4.32;1.10;;;18.00;99.90;;;;;;4918409;29;20036;-61
2022/06/09 05:49:50;;;;;;;1.13;0.90;;;18.20;99.90;;;;;;4915936;29;20583;-61
2022/06/09 05:52:24;;;;;;;1.73;1.30;;;18.30;99.90;;;;;;4922478;29;20111;-61
2022/06/09 05:54:51;;;;;;;1.90;1.10;;;18.50;99.90;;;;;;4921855;29;20028;-61
2022/06/09 05:57:19;;;;;;;2.13;1.02;;;18.60;99.90;;;;;;4921448;29;20050;-61
2022/06/09 05:59:45;;;;;;;1.20;0.80;;;19.00;99.90;;;;;;4917534;29;20036;-61
2022/06/09 06:02:11;;;;;;;1.92;1.08;;;19.50;99.90;;;;;;4919324;29;20028;-62
2022/06/09 06:04:37;;;;;;;1.95;0.90;;;19.90;99.90;;;;;;4920072;29;20039;-62
2022/06/09 06:07:03;;;;;;;2.03;0.82;;;20.40;99.90;;;;;;4916176;29;20427;-62
2022/06/09 06:09:28;;;;;;;1.25;0.68;;;20.70;99.90;;;;;;4921866;29;20106;-62
2022/06/09 06:11:54;;;;;;;1.35;0.70;;;21.10;98.40;;;;;;4920291;29;20035;-62
2022/06/09 06:14:22;;;;;;;0.88;0.63;;;22.30;94.60;;;;;;4910811;29;20072;-62
2022/06/09 06:16:48;;;;;;;1.52;0.77;;;23.70;90.60;;;;;;4900407;29;20123;-62
2022/06/09 06:19:19;;;;;;;1.35;0.70;;;24.40;82.30;;;;;;4916823;29;20067;-62
2022/06/09 06:21:47;;;;;;;1.67;0.68;;;25.30;75.70;;;;;;4923731;29;20047;-62
2022/06/09 06:24:14;;;;;;;1.23;0.60;;;25.60;72.20;;;;;;4922622;29;20043;-62
2022/06/09 06:26:40;;;;;;;0.90;0.80;;;25.50;71.90;;;;;;4919610;29;20043;-62
2022/06/09 06:29:08;;;;;;;1.33;0.82;;;25.00;70.20;;;;;;4918296;29;20036;-62
2022/06/09 06:31:34;;;;;;;1.27;0.90;;;25.00;71.10;;;;;;4904217;29;20663;-61
2022/06/09 06:34:00;;;;;;;1.75;0.82;;;24.70;70.60;;;;;;4922503;29;20063;-62
2022/06/09 06:36:29;;;;;;;2.15;0.90;;;23.90;72.50;;;;;;4922061;29;20032;-61
2022/06/09 06:38:55;;;;;;;1.48;0.65;;;23.10;74.60;;;;;;4917556;29;20040;-62
2022/06/09 06:41:21;;;;;;;1.73;0.80;;;22.50;78.00;;;;;;4921841;29;20028;-61
2022/06/09 06:43:48;;;;;;;1.48;0.90;;;22.00;80.70;;;;;;4923247;29;20039;-62
2022/06/09 06:46:15;;;;;;;2.03;1.17;;;22.10;81.20;;;;;;4921153;29;20038;-61
2022/06/09 06:48:40;;;;;;;2.63;0.80;;;22.20;81.20;;;;;;4919109;29;20036;-61
2022/06/09 06:51:06;;;;;;;2.97;0.90;;;22.40;80.30;;;;;;4920784;29;20034;-61
2022/06/09 06:53:36;;;;;;;2.22;1.20;;;22.60;79.50;;;;;;4905426;29;20495;-61
2022/06/09 06:56:03;;;;;;;2.17;1.23;;;22.70;77.10;;;;;;4916486;29;20037;-61
2022/06/09 06:58:29;;;;;;;4.13;1.60;;;22.50;77.90;;;;;;4921991;29;20518;-62
2022/06/09 07:00:54;;;;;;;3.50;1.45;;;22.20;77.70;;;;;;4919298;29;20032;-61
2022/06/09 07:03:20;;;;;;;2.28;1.65;;;22.00;78.30;;;;;;4911434;29;20020;-62
2022/06/09 07:05:46;;;;;;;2.88;1.50;;;21.50;79.90;;;;;;4918494;29;20043;-61
2022/06/09 07:08:15;;;;;;;3.80;1.40;;;21.20;81.60;;;;;;4917887;29;20091;-62
2022/06/09 07:10:41;;;;;;;5.43;2.03;;;20.70;83.50;;;;;;4917189;29;20162;-61
2022/06/09 07:13:07;;;;;;;2.80;1.55;;;20.20;85.30;;;;;;4905060;29;20127;-61
2022/06/09 07:15:34;;;;;;;5.13;1.65;;;19.80;87.10;;;;;;4918412;29;20106;-61
2022/06/09 07:17:59;;;;;;;3.60;1.63;;;19.40;90.30;;;;;;4916347;29;20056;-61
2022/06/09 07:20:26;;;;;;;4.85;1.80;;;19.20;91.10;;;;;;4923269;29;20118;-61
2022/06/09 07:22:52;;;;;;;3.97;1.73;;;19.20;91.60;;;;;;4921116;29;20035;-61
2022/06/09 07:25:19;;;;;;;6.95;2.05;;;19.50;91.50;;;;;;4921295;29;20024;-61
2022/06/09 07:27:47;;;;;;;4.55;1.63;;;19.60;91.50;;;;;;4920866;29;20040;-61
2022/06/09 07:30:13;;;;;;;4.97;1.67;;;19.60;91.50;;;;;;4921278;29;20924;-61
2022/06/09 07:32:40;;;;;;;2.53;1.67;;;19.90;91.10;;;;;;4918301;29;20040;-61
2022/06/09 07:35:07;;;;;;;2.50;1.48;;;20.20;91.60;;;;;;4918592;29;20039;-62
2022/06/09 07:37:33;;;;;;;3.35;1.38;;;20.90;90.60;;;;;;4917500;29;20048;-61
2022/06/09 07:39:59;;;;;;;2.35;1.23;;;21.50;86.90;;;;;;4917795;29;20032;-61
2022/06/09 07:42:26;;;;;;;3.47;1.20;;;21.80;84.80;;;;;;4922573;29;20032;-61
2022/06/09 07:44:53;;;;;;;3.90;1.30;;;22.20;83.00;;;;;;4921093;29;20040;-61
2022/06/09 07:47:18;;;;;;;2.55;1.20;;;22.20;81.70;;;;;;4922254;29;20032;-61
2022/06/09 07:49:44;;;;;;;2.75;0.90;;;21.90;81.20;;;;;;4923548;29;20087;-61
2022/06/09 07:52:11;;;;;;;3.75;1.02;;;21.30;83.10;;;;;;4923873;29;20031;-61
2022/06/09 07:54:37;;;;;;;2.22;0.95;;;20.70;85.20;;;;;;4923880;29;20032;-61
2022/06/09 07:57:03;;;;;;;3.20;1.02;;;20.20;87.90;;;;;;4924222;29;20032;-61
2022/06/09 07:59:29;;;;;;;1.13;0.90;;;19.90;89.30;;;;;;4921006;29;20404;-61
2022/06/09 08:01:55;;;;;;;3.60;1.10;;;19.70;90.90;;;;;;4920605;29;20028;-61
2022/06/09 08:04:20;;;;;;;4.30;1.20;;;19.50;91.30;;;;;;4905806;29;20484;-61
2022/06/09 08:06:46;;;;;;;2.42;1.20;;;19.50;91.60;;;;;;4921764;29;20060;-61
2022/06/09 08:09:12;;;;;;;4.40;1.48;;;19.60;91.30;;;;;;4920325;29;20043;-61
2022/06/09 08:11:39;;;;;;;3.25;1.08;;;19.60;91.20;;;;;;4921023;29;20067;-61
2022/06/09 08:14:06;;;;;;;3.40;1.30;;;19.60;92.10;;;;;;4923873;29;20028;-61
2022/06/09 08:16:33;;;;;;;1.92;1.20;;;19.70;91.60;;;;;;4924860;29;20125;-61
2022/06/09 08:18:59;;;;;;;1.90;1.20;;;19.90;91.30;;;;;;4923451;29;20488;-62
2022/06/09 08:21:30;;;;;;;3.33;1.42;;;20.10;91.40;;;;;;4920251;29;20098;-62
2022/06/09 08:23:55;;;;;;;1.77;1.02;;;20.50;91.10;;;;;;4921294;29;20040;-61
2022/06/09 08:26:22;;;;;;;3.40;1.33;;;20.90;90.10;;;;;;4920445;29;20095;-61
2022/06/09 08:28:47;;;;;;;1.92;1.13;;;20.90;89.30;;;;;;4925369;29;20403;-61
2022/06/09 08:31:13;;;;;;;2.25;1.17;;;21.10;88.60;;;;;;4923001;29;20028;-62
2022/06/09 08:33:39;;;;;;;3.08;1.20;;;22.00;87.80;;;;;;4921277;29;20039;-61
2022/06/09 08:36:05;;;;;;;4.80;1.10;;;23.40;83.00;;;;;;4920928;29;20067;-62
2022/06/09 08:38:31;;;;;;;3.55;1.00;;;24.50;79.10;;;;;;4923353;29;20036;-62
2022/06/09 08:41:17;;;;;;;3.47;0.88;;;26.00;76.40;;;;;;4919963;29;20033;-62
2022/06/09 08:44:04;;;;;;;2.95;1.02;;;27.20;70.40;;;;;;4925049;29;20084;-62
2022/06/09 08:46:51;;;;;;;1.30;0.80;;;26.90;64.50;;;;;;4922498;29;20031;-62
2022/06/09 08:49:24;;;;;;;4.22;0.98;;;26.40;66.40;;;;;;4919035;29;20523;-62
2022/06/09 08:51:52;;;;;;;3.55;0.80;;;26.80;66.30;;;;;;4922898;29;20044;-62
2022/06/09 08:54:28;;;;;;;2.50;0.80;;;26.90;62.60;;;;;;4923739;29;20423;-62
2022/06/09 08:56:56;;;;;;;1.77;0.80;;;26.60;65.80;;;;;;4921084;29;20123;-62
2022/06/09 08:59:28;;;;;;;2.35;0.90;;;27.30;62.50;;;;;;4924105;29;20039;-62
2022/06/09 09:02:01;;;;;;;2.10;0.80;;;28.20;58.00;;;;;;4919377;29;20111;-63
2022/06/09 09:04:43;;;;;;;1.70;0.77;;;29.10;57.40;;;;;;4903927;29;20027;-62
2022/06/09 09:07:23;;;;;;;2.20;1.00;;;29.50;55.40;;;;;;4920715;29;20035;-62
2022/06/09 09:09:48;;;;;;;4.13;0.70;;;30.00;54.00;;;;;;4922763;29;20107;-62
2022/06/09 09:12:31;;;;;;;0.90;0.63;;;30.00;52.40;;;;;;4920846;29;20106;-62
2022/06/09 09:15:05;;;;;;;1.77;0.70;;;30.00;52.60;;;;;;4904370;29;20029;-62
2022/06/09 09:17:37;;;;;;;2.13;0.70;;;29.20;53.00;;;;;;4921378;29;20071;-61
2022/06/09 09:20:15;;;;;;;2.78;1.00;;;29.10;54.70;;;;;;4917091;29;20023;-61
2022/06/09 09:22:49;;;;;;;2.22;0.80;;;29.90;54.20;;;;;;4906868;29;20159;-61
2022/06/09 09:25:44;;;;;;;1.63;0.93;;;30.90;51.90;;;;;;4921982;29;20059;-61
2022/06/09 09:28:40;;;;;;;3.95;0.75;;;31.60;47.70;;;;;;4896189;29;20039;-61
2022/06/09 09:31:17;;;;;;;2.05;0.77;;;31.20;48.10;;;;;;4922920;29;20027;-61
2022/06/09 09:33:44;;;;;;;1.10;0.60;;;31.40;48.20;;;;;;4921762;29;20069;-61
2022/06/09 09:36:27;;;;;;;3.45;0.63;;;31.80;49.10;;;;;;4919448;29;20043;-61
2022/06/09 09:39:10;;;;;;;2.22;0.50;;;33.10;45.80;;;;;;4918254;29;20572;-61
2022/06/09 09:41:39;;;;;;;5.63;0.77;;;32.90;42.70;;;;;;4919047;29;20079;-60
2022/06/09 09:44:29;;;;;;;1.95;0.75;;;31.20;46.00;;;;;;4920496;29;20890;-60
2022/06/09 09:47:00;;;;;;;1.42;1.02;;;28.90;50.00;;;;;;4922600;29;20492;-60
2022/06/09 09:49:29;;;;;;;2.50;0.75;;;26.90;52.90;;;;;;4904451;29;20040;-62
2022/06/09 09:51:57;;;;;;;2.03;0.88;;;25.40;56.20;;;;;;4917710;29;20032;-62
2022/06/09 09:54:38;;;;;;;6.53;1.02;;;24.20;57.60;;;;;;4906049;29;20044;-61
2022/06/09 09:57:12;;;;;;;;;;;23.20;59.60;;;;;;4919686;29;20503;-62
2022/06/09 09:59:51;;;;;;;2.25;0.90;;;22.40;63.30;;;;;;4924766;29;19910;-62
2022/06/09 10:08:35;;;;;;;3.42;1.08;;;21.30;69.50;;;;;;4914868;29;20043;-62
2022/06/09 10:11:53;;;;;;;2.78;0.95;;;21.10;69.70;;;;;;4910356;29;20032;-61
2022/06/09 10:13:50;;;;;;;4.78;1.05;;;21.20;71.20;;;;;;4923924;29;20042;-61
2022/06/09 10:16:16;;;;;;;2.45;1.20;;;21.30;71.10;;;;;;4918880;29;20039;-61
2022/06/09 10:18:44;;;;;;;6.35;1.20;;;21.50;71.30;;;;;;4919819;29;20095;-61
2022/06/09 10:21:13;;;;;;;2.60;1.00;;;22.10;69.40;;;;;;4922006;29;20032;-62
2022/06/09 10:24:05;;;;;;;1.95;0.90;;;23.30;69.30;;;;;;4917870;29;20036;-61
2022/06/09 10:26:38;;;;;;;3.33;0.95;;;24.90;64.00;;;;;;4922056;29;20534;-61
2022/06/09 10:29:06;;;;;;;2.42;0.90;;;25.80;60.40;;;;;;4919252;29;20048;-61
2022/06/09 10:31:46;;;;;;;2.70;1.08;;;25.90;60.10;;;;;;4922649;29;20123;-62
2022/06/09 10:34:21;;;;;;;1.95;1.08;;;25.70;59.30;;;;;;4921324;29;20040;-62
2022/06/09 10:36:53;;;;;;;1.85;1.17;;;25.40;60.40;;;;;;4912439;29;20029;-62
2022/06/09 10:39:29;;;;;;;1.98;1.20;;;25.10;60.50;;;;;;4914370;29;20039;-62
2022/06/09 10:42:04;;;;;;;3.53;0.98;;;24.90;62.00;;;;;;4924602;29;20220;-62
2022/06/09 10:44:30;;;;;;;2.55;0.93;;;24.70;61.10;;;;;;4917732;29;20119;-62
2022/06/09 10:56:53;;;;;;;2.75;1.10;;;23.40;66.10;;;;;;4917865;29;20141;-61
2022/06/09 10:59:30;;;;;;;3.88;1.20;;;23.20;66.40;;;;;;4922637;29;20051;-61
2022/06/09 11:01:56;;;;;;;1.98;0.93;;;23.10;67.60;;;;;;4901187;29;20020;-61
2022/06/09 11:04:24;;;;;;;2.80;1.10;;;23.20;65.80;;;;;;4919819;29;20480;-61
2022/06/09 11:06:52;;;;;;;3.05;1.10;;;23.30;66.50;;;;;;4920401;29;20032;-61
2022/06/09 11:09:36;;;;;;;1.92;0.90;;;23.50;65.60;;;;;;4917227;29;20061;-62
2022/06/09 11:12:05;;;;;;;4.53;1.02;;;23.80;63.70;;;;;;4916836;29;20451;-61
2022/06/09 11:14:42;;;;;;;2.50;1.10;;;24.00;65.30;;;;;;4921712;29;20028;-61
2022/06/09 11:17:46;;;;;;;2.30;0.90;;;24.30;62.50;;;;;;4917845;29;20139;-61
2022/06/09 11:20:40;;;;;;;3.03;1.10;;;24.10;61.80;;;;;;4924513;29;20032;-61
2022/06/09 11:23:24;;;;;;;2.22;0.95;;;23.70;61.80;;;;;;4924306;29;20130;-61
2022/06/09 11:26:12;;;;;;;3.20;0.90;;;23.20;62.50;;;;;;4924622;29;20056;-61
2022/06/09 11:28:46;;;;;;;3.85;0.90;;;22.60;62.90;;;;;;4925359;29;20047;-61
2022/06/09 11:31:48;;;;;;;1.95;0.80;;;22.10;63.40;;;;;;4902443;29;20028;-61
2022/06/09 11:34:26;;;;;;;2.95;1.00;;;21.60;65.20;;;;;;4925708;29;20024;-61
2022/06/09 11:37:05;;;;;;;3.47;0.90;;;21.10;66.60;;;;;;4923881;29;20119;-61
2022/06/09 11:39:49;;;;;;;3.63;1.00;;;20.80;68.20;;;;;;4920177;29;20554;-61
2022/06/09 11:42:42;;;;;;;4.55;0.90;;;20.60;69.10;;;;;;4919229;29;20020;-61
2022/06/09 11:45:34;;;;;;;2.50;0.93;;;20.30;70.70;;;;;;4917435;29;20037;-61
2022/06/09 11:48:04;;;;;;;1.60;0.90;;;20.10;71.90;;;;;;4918576;29;20106;-61
2022/06/09 11:50:42;;;;;;;3.65;1.10;;;20.10;71.80;;;;;;4921239;29;20047;-61
2022/06/09 11:53:20;;;;;;;1.98;0.80;;;20.10;72.40;;;;;;4920641;29;20032;-61
2022/06/09 11:55:59;;;;;;;5.85;1.13;;;20.10;72.90;;;;;;4923855;29;20052;-61
2022/06/09 11:58:34;;;;;;;3.00;1.10;;;20.10;72.70;;;;;;4924236;29;20028;-61
2022/06/09 12:01:16;;;;;;;2.38;0.80;;;20.10;72.10;;;;;;4923300;29;20171;-60
2022/06/09 12:03:47;;;;;;;;;;;20.20;73.20;;;;;;4922288;29;20082;-61
2022/06/09 12:06:22;;;;;;;;;;;20.40;71.90;;;;;;4925043;29;19918;-60
2022/06/09 12:09:05;;;;;;;2.35;1.08;;;20.40;72.20;;;;;;4925052;29;19918;-61
2022/06/09 12:11:56;;;;;;;2.47;1.10;;;20.60;70.60;;;;;;4920482;29;20503;-61
2022/06/09 12:14:25;;;;;;;3.75;1.58;;;20.90;70.40;;;;;;4922093;29;20480;-61
2022/06/09 12:17:05;;;;;;;4.15;1.00;;;21.20;68.90;;;;;;4921764;29;20040;-61
2022/06/09 12:19:50;;;;;;;5.22;1.25;;;21.80;67.30;;;;;;4922136;29;20080;-61
2022/06/09 12:22:58;;;;;;;3.55;1.52;;;22.40;65.20;;;;;;4922340;29;20036;-61
2022/06/09 12:25:33;;;;;;;4.70;1.00;;;23.00;64.40;;;;;;4926849;29;20028;-61
2022/06/09 12:27:59;;;;;;;3.08;1.00;;;23.10;64.20;;;;;;4922021;29;20032;-61
2022/06/09 12:30:29;;;;;;;4.63;1.30;;;23.40;64.80;;;;;;4921296;29;20063;-61
2022/06/09 12:33:30;;;;;;;3.20;0.90;;;23.60;64.20;;;;;;4923363;29;20042;-61
2022/06/09 12:36:06;;;;;;;5.32;1.15;;;23.80;62.80;;;;;;4922748;29;20557;-61
2022/06/09 12:38:55;;;;;;;3.97;1.20;;;23.70;64.10;;;;;;4919296;29;20047;-61
2022/06/09 12:41:40;;;;;;;2.80;1.05;;;23.80;65.00;;;;;;4919588;29;20043;-61
2022/06/09 12:44:16;;;;;;;4.20;1.08;;;23.90;63.80;;;;;;4922750;29;20040;-61
2022/06/09 12:46:42;;;;;;;2.50;0.82;;;23.60;62.80;;;;;;4920590;29;20028;-61
2022/06/09 12:49:35;;;;;;;4.63;1.33;;;23.50;63.70;;;;;;4921494;29;20440;-61
2022/06/09 12:52:02;;;;;;;3.65;1.10;;;23.50;64.10;;;;;;4920895;29;20102;-61
2022/06/09 12:54:36;;;;;;;3.25;1.33;;;23.40;64.30;;;;;;4919352;29;20036;-61
2022/06/09 12:57:02;;;;;;;3.55;0.88;;;23.30;64.40;;;;;;4921918;29;20040;-61
2022/06/09 12:59:35;;;;;;;3.15;1.00;;;23.50;64.70;;;;;;4922798;29;20133;-61
2022/06/09 13:02:11;;;;;;;3.53;1.10;;;23.60;63.20;;;;;;4924776;29;20043;-61
2022/06/09 13:05:09;;;;;;;1.48;0.70;;;23.50;62.90;;;;;;4921267;29;20490;-61
2022/06/09 13:07:39;;;;;;;4.90;1.00;;;23.50;63.80;;;;;;4916936;29;20052;-61
2022/06/09 13:10:16;;;;;;;2.35;1.10;;;23.40;63.80;;;;;;4917865;29;20031;-61
2022/06/09 13:12:52;;;;;;;1.77;0.80;;;23.30;65.50;;;;;;4901395;29;20024;-61
2022/06/09 13:15:33;;;;;;;2.97;1.20;;;23.30;63.90;;;;;;4923605;29;20514;-61
2022/06/09 13:18:19;;;;;;;3.05;1.08;;;23.30;63.60;;;;;;4917716;29;20540;-61
2022/06/09 13:20:55;;;;;;;5.13;1.10;;;23.10;64.70;;;;;;4916440;29;20047;-62
2022/06/09 13:23:21;;;;;;;3.15;0.95;;;23.10;67.40;;;;;;4918966;29;20369;-61
2022/06/09 13:25:47;;;;;;;1.75;1.10;;;23.30;65.10;;;;;;4918479;29;20551;-61
2022/06/09 13:28:30;;;;;;;2.83;0.90;;;23.30;64.70;;;;;;4900353;29;20044;-61
2022/06/09 13:30:58;;;;;;;3.45;0.90;;;23.30;65.30;;;;;;4917992;29;20071;-61